CheckWX is a tool to help pilots better visualize weather data.  It is not intended as a substitute for an official pre-flight weather briefing.

21:36:47 UTC

VTPH TAF
Hua Hin Airport
Hua Hin, Thailand
TAF VTPH 201700Z 2018/2118 21005KT 9999 FEW030 BECMG 2102/2104 13010KT BECMG 2114/2116 20005KT

Mar-20@
18:00 UTC

Mar-20 @ 18:00 UTC

Mar-21@
02:00 UTC

Mar-21 @ 02:00 UTC

TAF VTPH 201700Z 2018/2118 21005KT 9999 FEW030
Wind
  • 210° at 5 KTS
Cloud Levels
  • Few at 3,000' AGL

Mar-21@
02:00 UTC

Mar-21 @ 02:00 UTC

Mar-21@
14:00 UTC

Mar-21 @ 14:00 UTC

BECMG 2102/2104 13010KT

Becoming

Becoming Conditions expected by Thu, Mar 21, 2019 @ 04:00 UTC

Wind
  • 130° at 10 KTS
Cloud Levels
  • Few at 3,000' AGL

Mar-21@
14:00 UTC

Mar-21 @ 14:00 UTC

Mar-21@
18:00 UTC

Mar-21 @ 18:00 UTC

BECMG 2114/2116 20005KT

Becoming

Becoming Conditions expected by Thu, Mar 21, 2019 @ 16:00 UTC

Wind
  • 200° at 5 KTS
Cloud Levels
  • Few at 3,000' AGL